sensor_id;sensor_type;location;lat;lon;timestamp;pressure;altitude;pressure_sealevel;temperature;humidity
76732;BME280;65656;51.130;13.658;2023-07-30T00:02:44;98662.34;;;14.06;100.00
76732;BME280;65656;51.130;13.658;2023-07-30T00:06:47;98664.31;;;14.01;100.00
76732;BME280;65656;51.130;13.658;2023-07-30T00:10:48;98668.78;;;13.97;100.00
76732;BME280;65656;51.130;13.658;2023-07-30T00:14:50;98654.78;;;13.93;100.00
76732;BME280;65656;51.130;13.658;2023-07-30T00:18:52;98660.56;;;13.91;100.00
76732;BME280;65656;51.130;13.658;2023-07-30T00:22:55;98652.06;;;13.88;100.00
76732;BME280;65656;51.130;13.658;2023-07-30T00:26:56;98655.66;;;13.88;100.00
76732;BME280;65656;51.130;13.658;2023-07-30T00:30:58;98644.63;;;13.88;100.00
76732;BME280;65656;51.130;13.658;2023-07-30T00:34:59;98646.28;;;13.89;100.00
76732;BME280;65656;51.130;13.658;2023-07-30T00:39:02;98642.66;;;13.94;100.00
76732;BME280;65656;51.130;13.658;2023-07-30T00:43:04;98651.09;;;14.03;100.00
76732;BME280;65656;51.130;13.658;2023-07-30T00:47:05;98648.19;;;14.18;100.00
76732;BME280;65656;51.130;13.658;2023-07-30T00:51:07;98655.81;;;14.26;100.00
76732;BME280;65656;51.130;13.658;2023-07-30T00:55:12;98642.06;;;14.21;100.00
76732;BME280;65656;51.130;13.658;2023-07-30T00:59:14;98645.16;;;14.14;100.00
76732;BME280;65656;51.130;13.658;2023-07-30T01:03:16;98633.63;;;14.12;100.00
76732;BME280;65656;51.130;13.658;2023-07-30T01:07:17;98640.56;;;14.10;100.00
76732;BME280;65656;51.130;13.658;2023-07-30T01:11:20;98629.63;;;14.00;100.00
76732;BME280;65656;51.130;13.658;2023-07-30T01:15:22;98642.06;;;13.97;100.00
76732;BME280;65656;51.130;13.658;2023-07-30T01:19:24;98639.13;;;13.88;100.00
76732;BME280;65656;51.130;13.658;2023-07-30T01:23:27;98655.13;;;13.86;100.00
76732;BME280;65656;51.130;13.658;2023-07-30T01:27:30;98648.81;;;14.10;100.00
76732;BME280;65656;51.130;13.658;2023-07-30T01:31:34;98660.59;;;14.15;100.00
76732;BME280;65656;51.130;13.658;2023-07-30T01:35:38;98659.69;;;14.25;100.00
76732;BME280;65656;51.130;13.658;2023-07-30T01:39:42;98664.94;;;14.21;100.00
76732;BME280;65656;51.130;13.658;2023-07-30T01:43:44;98671.97;;;14.09;100.00
76732;BME280;65656;51.130;13.658;2023-07-30T01:47:46;98677.56;;;13.99;100.00
76732;BME280;65656;51.130;13.658;2023-07-30T01:51:48;98680.44;;;13.88;100.00
76732;BME280;65656;51.130;13.658;2023-07-30T01:55:51;98685.41;;;13.86;100.00
76732;BME280;65656;51.130;13.658;2023-07-30T01:59:52;98688.19;;;13.81;100.00
76732;BME280;65656;51.130;13.658;2023-07-30T02:03:54;98695.94;;;13.79;100.00
76732;BME280;65656;51.130;13.658;2023-07-30T02:07:55;98683.34;;;13.68;100.00
76732;BME280;65656;51.130;13.658;2023-07-30T02:11:58;98673.44;;;13.67;100.00
76732;BME280;65656;51.130;13.658;2023-07-30T02:16:00;98676.47;;;13.71;100.00
76732;BME280;65656;51.130;13.658;2023-07-30T02:20:01;98675.06;;;13.73;100.00
76732;BME280;65656;51.130;13.658;2023-07-30T02:24:04;98670.38;;;13.74;100.00
76732;BME280;65656;51.130;13.658;2023-07-30T02:28:07;98682.69;;;13.81;100.00
76732;BME280;65656;51.130;13.658;2023-07-30T02:32:08;98678.50;;;13.89;100.00
76732;BME280;65656;51.130;13.658;2023-07-30T02:36:10;98682.03;;;13.94;100.00
76732;BME280;65656;51.130;13.658;2023-07-30T02:40:11;98675.34;;;14.01;100.00
76732;BME280;65656;51.130;13.658;2023-07-30T02:44:14;98675.81;;;14.08;100.00
76732;BME280;65656;51.130;13.658;2023-07-30T02:48:16;98685.69;;;14.14;100.00
76732;BME280;65656;51.130;13.658;2023-07-30T02:52:17;98683.91;;;14.23;100.00
76732;BME280;65656;51.130;13.658;2023-07-30T02:56:19;98689.09;;;14.30;100.00
76732;BME280;65656;51.130;13.658;2023-07-30T03:00:22;98693.44;;;14.36;100.00
76732;BME280;65656;51.130;13.658;2023-07-30T03:04:23;98692.53;;;14.45;100.00
76732;BME280;65656;51.130;13.658;2023-07-30T03:08:25;98686.66;;;14.52;100.00
76732;BME280;65656;51.130;13.658;2023-07-30T03:12:26;98694.59;;;14.59;100.00
76732;BME280;65656;51.130;13.658;2023-07-30T03:16:30;98689.59;;;14.61;100.00
76732;BME280;65656;51.130;13.658;2023-07-30T03:20:31;98682.31;;;14.70;100.00
76732;BME280;65656;51.130;13.658;2023-07-30T03:24:33;98684.78;;;14.71;100.00
76732;BME280;65656;51.130;13.658;2023-07-30T03:28:35;98677.84;;;14.74;100.00
76732;BME280;65656;51.130;13.658;2023-07-30T03:32:41;98684.19;;;14.74;100.00
76732;BME280;65656;51.130;13.658;2023-07-30T03:36:43;98685.47;;;14.82;100.00
76732;BME280;65656;51.130;13.658;2023-07-30T03:40:45;98691.44;;;14.89;100.00
76732;BME280;65656;51.130;13.658;2023-07-30T03:44:46;98685.25;;;14.97;100.00
76732;BME280;65656;51.130;13.658;2023-07-30T03:48:49;98701.16;;;15.05;100.00
76732;BME280;65656;51.130;13.658;2023-07-30T03:52:51;98697.88;;;15.03;100.00
76732;BME280;65656;51.130;13.658;2023-07-30T03:56:52;98705.25;;;15.08;100.00
76732;BME280;65656;51.130;13.658;2023-07-30T04:00:54;98701.66;;;15.08;100.00
76732;BME280;65656;51.130;13.658;2023-07-30T04:04:57;98697.28;;;15.07;100.00
76732;BME280;65656;51.130;13.658;2023-07-30T04:08:58;98699.97;;;15.12;100.00
76732;BME280;65656;51.130;13.658;2023-07-30T04:13:00;98694.97;;;15.14;100.00
76732;BME280;65656;51.130;13.658;2023-07-30T04:17:01;98699.81;;;15.22;100.00
76732;BME280;65656;51.130;13.658;2023-07-30T04:21:04;98699.22;;;15.25;100.00
76732;BME280;65656;51.130;13.658;2023-07-30T04:25:06;98694.13;;;15.32;100.00
76732;BME280;65656;51.130;13.658;2023-07-30T04:29:08;98690.69;;;15.40;100.00
76732;BME280;65656;51.130;13.658;2023-07-30T04:33:09;98691.75;;;15.44;100.00
76732;BME280;65656;51.130;13.658;2023-07-30T04:37:12;98698.31;;;15.48;100.00
76732;BME280;65656;51.130;13.658;2023-07-30T04:41:14;98685.63;;;15.47;100.00
76732;BME280;65656;51.130;13.658;2023-07-30T04:45:15;98696.47;;;15.44;100.00
76732;BME280;65656;51.130;13.658;2023-07-30T04:49:17;98690.13;;;15.43;100.00
76732;BME280;65656;51.130;13.658;2023-07-30T04:53:20;98692.38;;;15.41;100.00
76732;BME280;65656;51.130;13.658;2023-07-30T04:57:22;98690.56;;;15.50;100.00
76732;BME280;65656;51.130;13.658;2023-07-30T05:01:24;98694.13;;;15.70;100.00
76732;BME280;65656;51.130;13.658;2023-07-30T05:05:25;98694.22;;;15.97;100.00
76732;BME280;65656;51.130;13.658;2023-07-30T05:09:28;98691.00;;;16.23;100.00
76732;BME280;65656;51.130;13.658;2023-07-30T05:13:30;98691.22;;;16.40;100.00
76732;BME280;65656;51.130;13.658;2023-07-30T05:17:31;98687.16;;;16.51;100.00
76732;BME280;65656;51.130;13.658;2023-07-30T05:21:33;98691.34;;;16.62;100.00
76732;BME280;65656;51.130;13.658;2023-07-30T05:25:36;98699.44;;;16.73;100.00
76732;BME280;65656;51.130;13.658;2023-07-30T05:29:37;98689.19;;;16.87;100.00
76732;BME280;65656;51.130;13.658;2023-07-30T05:33:39;98711.31;;;16.87;100.00
76732;BME280;65656;51.130;13.658;2023-07-30T05:37:40;98719.53;;;17.06;100.00
76732;BME280;65656;51.130;13.658;2023-07-30T05:41:43;98728.81;;;17.23;100.00
76732;BME280;65656;51.130;13.658;2023-07-30T05:45:45;98730.94;;;17.26;100.00
76732;BME280;65656;51.130;13.658;2023-07-30T05:49:46;98732.09;;;17.25;100.00
76732;BME280;65656;51.130;13.658;2023-07-30T05:53:48;98734.34;;;17.23;100.00
76732;BME280;65656;51.130;13.658;2023-07-30T05:57:51;98733.63;;;17.18;100.00
76732;BME280;65656;51.130;13.658;2023-07-30T06:01:52;98734.44;;;17.18;100.00
76732;BME280;65656;51.130;13.658;2023-07-30T06:05:54;98737.13;;;17.23;100.00
76732;BME280;65656;51.130;13.658;2023-07-30T06:09:56;98741.81;;;17.37;100.00
76732;BME280;65656;51.130;13.658;2023-07-30T06:13:58;98731.88;;;17.58;100.00
76732;BME280;65656;51.130;13.658;2023-07-30T06:18:00;98727.16;;;17.72;100.00
76732;BME280;65656;51.130;13.658;2023-07-30T06:22:02;98743.66;;;17.77;100.00
76732;BME280;65656;51.130;13.658;2023-07-30T06:26:04;98734.72;;;17.80;100.00
76732;BME280;65656;51.130;13.658;2023-07-30T06:30:08;98737.19;;;17.82;100.00
76732;BME280;65656;51.130;13.658;2023-07-30T06:34:09;98737.91;;;17.96;100.00
76732;BME280;65656;51.130;13.658;2023-07-30T06:38:11;98745.47;;;18.04;100.00
76732;BME280;65656;51.130;13.658;2023-07-30T06:42:13;98745.03;;;18.11;100.00
76732;BME280;65656;51.130;13.658;2023-07-30T06:46:16;98742.91;;;18.08;100.00
76732;BME280;65656;51.130;13.658;2023-07-30T06:50:17;98748.47;;;18.08;100.00
76732;BME280;65656;51.130;13.658;2023-07-30T06:54:20;98749.06;;;18.05;100.00
76732;BME280;65656;51.130;13.658;2023-07-30T06:58:21;98760.69;;;18.07;100.00
76732;BME280;65656;51.130;13.658;2023-07-30T07:02:24;98750.97;;;18.18;100.00
76732;BME280;65656;51.130;13.658;2023-07-30T07:06:26;98756.44;;;18.32;100.00
76732;BME280;65656;51.130;13.658;2023-07-30T07:10:28;98758.31;;;18.45;100.00
76732;BME280;65656;51.130;13.658;2023-07-30T07:14:29;98769.00;;;18.60;100.00
76732;BME280;65656;51.130;13.658;2023-07-30T07:18:32;98768.00;;;18.87;100.00
76732;BME280;65656;51.130;13.658;2023-07-30T07:22:34;98766.72;;;18.93;100.00
76732;BME280;65656;51.130;13.658;2023-07-30T07:26:36;98771.25;;;18.89;100.00
76732;BME280;65656;51.130;13.658;2023-07-30T07:30:37;98777.22;;;19.14;100.00
76732;BME280;65656;51.130;13.658;2023-07-30T07:34:40;98783.53;;;19.45;100.00
76732;BME280;65656;51.130;13.658;2023-07-30T07:38:42;98785.56;;;19.71;100.00
76732;BME280;65656;51.130;13.658;2023-07-30T07:42:43;98782.28;;;19.69;100.00
76732;BME280;65656;51.130;13.658;2023-07-30T07:46:45;98790.72;;;19.46;100.00
76732;BME280;65656;51.130;13.658;2023-07-30T07:50:48;98774.31;;;19.19;100.00
76732;BME280;65656;51.130;13.658;2023-07-30T07:54:49;98776.25;;;19.10;100.00
76732;BME280;65656;51.130;13.658;2023-07-30T07:58:51;98777.38;;;19.09;100.00
76732;BME280;65656;51.130;13.658;2023-07-30T08:02:53;98767.13;;;19.18;100.00
76732;BME280;65656;51.130;13.658;2023-07-30T08:06:55;98772.06;;;19.38;100.00
76732;BME280;65656;51.130;13.658;2023-07-30T08:10:57;98774.44;;;19.71;100.00
76732;BME280;65656;51.130;13.658;2023-07-30T08:14:58;98774.59;;;19.83;98.28
76732;BME280;65656;51.130;13.658;2023-07-30T08:19:00;98769.34;;;19.99;97.56
76732;BME280;65656;51.130;13.658;2023-07-30T08:23:03;98762.16;;;20.07;96.97
76732;BME280;65656;51.130;13.658;2023-07-30T08:27:05;98764.88;;;20.41;97.21
76732;BME280;65656;51.130;13.658;2023-07-30T08:31:06;98764.78;;;20.76;91.52
76732;BME280;65656;51.130;13.658;2023-07-30T08:35:09;98761.53;;;20.74;88.46
76732;BME280;65656;51.130;13.658;2023-07-30T08:39:12;98772.66;;;20.74;93.14
76732;BME280;65656;51.130;13.658;2023-07-30T08:43:14;98767.72;;;20.88;92.19
76732;BME280;65656;51.130;13.658;2023-07-30T08:47:15;98760.03;;;20.76;90.35
76732;BME280;65656;51.130;13.658;2023-07-30T08:51:17;98756.28;;;20.81;88.71
76732;BME280;65656;51.130;13.658;2023-07-30T08:55:22;98756.94;;;20.78;89.27
76732;BME280;65656;51.130;13.658;2023-07-30T08:59:24;98755.59;;;20.84;92.22
76732;BME280;65656;51.130;13.658;2023-07-30T09:03:27;98735.59;;;21.20;83.46
76732;BME280;65656;51.130;13.658;2023-07-30T09:07:30;98739.59;;;21.82;79.71
76732;BME280;65656;51.130;13.658;2023-07-30T09:11:33;98751.56;;;22.03;76.50
76732;BME280;65656;51.130;13.658;2023-07-30T09:15:36;98747.47;;;22.21;79.08
76732;BME280;65656;51.130;13.658;2023-07-30T09:19:38;98754.50;;;22.40;76.78
76732;BME280;65656;51.130;13.658;2023-07-30T09:23:40;98747.34;;;22.63;76.47
76732;BME280;65656;51.130;13.658;2023-07-30T09:27:47;98748.97;;;22.64;74.13
76732;BME280;65656;51.130;13.658;2023-07-30T09:31:50;98739.50;;;22.90;74.05
76732;BME280;65656;51.130;13.658;2023-07-30T09:35:52;98749.94;;;23.42;73.57
76732;BME280;65656;51.130;13.658;2023-07-30T09:39:53;98747.44;;;23.12;71.88
76732;BME280;65656;51.130;13.658;2023-07-30T09:43:59;98745.78;;;23.11;73.79
76732;BME280;65656;51.130;13.658;2023-07-30T09:48:02;98753.69;;;23.09;73.44
76732;BME280;65656;51.130;13.658;2023-07-30T09:52:05;98753.69;;;23.09;74.74
76732;BME280;65656;51.130;13.658;2023-07-30T09:56:06;98761.84;;;22.90;74.53
76732;BME280;65656;51.130;13.658;2023-07-30T10:00:10;98763.25;;;22.96;72.59
76732;BME280;65656;51.130;13.658;2023-07-30T10:04:12;98757.91;;;22.91;71.19
76732;BME280;65656;51.130;13.658;2023-07-30T10:08:17;98761.88;;;23.14;71.95
76732;BME280;65656;51.130;13.658;2023-07-30T10:12:22;98764.63;;;23.26;70.35
76732;BME280;65656;51.130;13.658;2023-07-30T10:16:28;98765.13;;;23.16;69.30
76732;BME280;65656;51.130;13.658;2023-07-30T10:20:31;98755.53;;;23.42;69.53
76732;BME280;65656;51.130;13.658;2023-07-30T10:24:33;98756.47;;;23.70;65.83
76732;BME280;65656;51.130;13.658;2023-07-30T10:28:35;98747.03;;;24.03;65.37
76732;BME280;65656;51.130;13.658;2023-07-30T10:32:39;98743.91;;;24.20;66.91
76732;BME280;65656;51.130;13.658;2023-07-30T10:36:43;98740.38;;;24.35;64.32
76732;BME280;65656;51.130;13.658;2023-07-30T10:41:00;98742.50;;;23.58;62.58
76732;BME280;65656;51.130;13.658;2023-07-30T10:45:07;98751.09;;;23.53;62.53
76732;BME280;65656;51.130;13.658;2023-07-30T10:49:10;98738.41;;;23.55;59.96
76732;BME280;65656;51.130;13.658;2023-07-30T10:53:11;98735.63;;;23.96;57.63
76732;BME280;65656;51.130;13.658;2023-07-30T10:57:13;98740.25;;;24.76;54.15
76732;BME280;65656;51.130;13.658;2023-07-30T11:01:15;98731.84;;;24.91;53.53
76732;BME280;65656;51.130;13.658;2023-07-30T11:05:20;98738.91;;;25.17;55.42
76732;BME280;65656;51.130;13.658;2023-07-30T11:09:23;98743.69;;;24.85;53.68
76732;BME280;65656;51.130;13.658;2023-07-30T11:13:25;98749.66;;;24.67;57.11
76732;BME280;65656;51.130;13.658;2023-07-30T11:17:26;98742.31;;;24.63;54.22
76732;BME280;65656;51.130;13.658;2023-07-30T11:21:29;98738.59;;;24.74;53.14
76732;BME280;65656;51.130;13.658;2023-07-30T11:25:31;98732.84;;;24.52;55.20
76732;BME280;65656;51.130;13.658;2023-07-30T11:29:33;98730.13;;;24.27;55.77
76732;BME280;65656;51.130;13.658;2023-07-30T11:33:35;98718.84;;;24.52;56.00
76732;BME280;65656;51.130;13.658;2023-07-30T11:37:39;98731.50;;;24.77;56.48
76732;BME280;65656;51.130;13.658;2023-07-30T11:41:41;98716.84;;;24.99;53.12
76732;BME280;65656;51.130;13.658;2023-07-30T11:45:43;98709.50;;;24.95;50.64
76732;BME280;65656;51.130;13.658;2023-07-30T11:49:54;98712.16;;;25.04;52.92
76732;BME280;65656;51.130;13.658;2023-07-30T11:53:58;98708.09;;;24.69;49.95
76732;BME280;65656;51.130;13.658;2023-07-30T11:58:00;98707.91;;;24.78;50.47
76732;BME280;65656;51.130;13.658;2023-07-30T12:02:02;98713.06;;;25.08;49.80
76732;BME280;65656;51.130;13.658;2023-07-30T12:06:04;98697.97;;;25.47;48.98
76732;BME280;65656;51.130;13.658;2023-07-30T12:10:09;98695.34;;;26.13;48.01
76732;BME280;65656;51.130;13.658;2023-07-30T12:14:10;98687.34;;;26.15;46.42
76732;BME280;65656;51.130;13.658;2023-07-30T12:18:12;98682.91;;;26.33;45.78
76732;BME280;65656;51.130;13.658;2023-07-30T12:22:13;98682.00;;;26.29;44.95
76732;BME280;65656;51.130;13.658;2023-07-30T12:26:16;98678.06;;;25.91;46.02
76732;BME280;65656;51.130;13.658;2023-07-30T12:30:18;98669.97;;;25.86;46.24
76732;BME280;65656;51.130;13.658;2023-07-30T12:34:19;98664.31;;;26.05;46.20
76732;BME280;65656;51.130;13.658;2023-07-30T12:38:21;98669.91;;;26.25;45.95
76732;BME280;65656;51.130;13.658;2023-07-30T12:42:24;98655.19;;;26.31;44.94
76732;BME280;65656;51.130;13.658;2023-07-30T12:46:26;98658.94;;;26.85;43.79
76732;BME280;65656;51.130;13.658;2023-07-30T12:50:27;98647.69;;;27.38;42.25
76732;BME280;65656;51.130;13.658;2023-07-30T12:54:29;98655.72;;;27.36;43.61
76732;BME280;65656;51.130;13.658;2023-07-30T12:58:33;98650.00;;;27.89;41.66
76732;BME280;65656;51.130;13.658;2023-07-30T13:02:34;98658.31;;;26.95;43.38
76732;BME280;65656;51.130;13.658;2023-07-30T13:06:36;98663.88;;;26.46;44.76
76732;BME280;65656;51.130;13.658;2023-07-30T13:10:38;98658.75;;;26.74;44.94
76732;BME280;65656;51.130;13.658;2023-07-30T13:14:40;98647.50;;;27.84;40.36
76732;BME280;65656;51.130;13.658;2023-07-30T13:18:42;98656.81;;;27.58;40.59
76732;BME280;65656;51.130;13.658;2023-07-30T13:22:43;98653.75;;;28.34;40.48
76732;BME280;65656;51.130;13.658;2023-07-30T13:26:45;98651.47;;;27.49;40.32
76732;BME280;65656;51.130;13.658;2023-07-30T13:30:48;98662.59;;;26.62;42.20
76732;BME280;65656;51.130;13.658;2023-07-30T13:34:49;98650.44;;;27.04;43.88
76732;BME280;65656;51.130;13.658;2023-07-30T13:38:51;98655.34;;;26.61;42.42
76732;BME280;65656;51.130;13.658;2023-07-30T13:42:52;98646.25;;;26.94;41.67
76732;BME280;65656;51.130;13.658;2023-07-30T13:46:55;98644.31;;;26.76;41.65
76732;BME280;65656;51.130;13.658;2023-07-30T13:50:57;98645.66;;;27.95;39.73
76732;BME280;65656;51.130;13.658;2023-07-30T13:54:59;98638.16;;;27.46;41.66
76732;BME280;65656;51.130;13.658;2023-07-30T13:59:00;98633.41;;;27.50;42.25
76732;BME280;65656;51.130;13.658;2023-07-30T14:03:03;98638.06;;;27.39;41.61
76732;BME280;65656;51.130;13.658;2023-07-30T14:07:05;98646.91;;;27.11;41.24
76732;BME280;65656;51.130;13.658;2023-07-30T14:11:07;98654.72;;;29.00;38.07
76732;BME280;65656;51.130;13.658;2023-07-30T14:15:08;98655.91;;;28.51;39.79
76732;BME280;65656;51.130;13.658;2023-07-30T14:19:11;98649.22;;;26.79;42.54
76732;BME280;65656;51.130;13.658;2023-07-30T14:23:13;98656.06;;;25.74;45.15
76732;BME280;65656;51.130;13.658;2023-07-30T14:27:14;98661.44;;;24.93;45.84
76732;BME280;65656;51.130;13.658;2023-07-30T14:31:16;98662.72;;;24.32;47.18
76732;BME280;65656;51.130;13.658;2023-07-30T14:35:19;98656.78;;;24.06;48.54
76732;BME280;65656;51.130;13.658;2023-07-30T14:39:21;98669.72;;;23.82;49.57
76732;BME280;65656;51.130;13.658;2023-07-30T14:43:22;98666.06;;;23.66;50.03
76732;BME280;65656;51.130;13.658;2023-07-30T14:47:24;98668.84;;;23.54;50.27
76732;BME280;65656;51.130;13.658;2023-07-30T14:51:27;98678.06;;;23.42;50.70
76732;BME280;65656;51.130;13.658;2023-07-30T14:55:28;98673.09;;;23.35;50.71
76732;BME280;65656;51.130;13.658;2023-07-30T14:59:30;98666.81;;;23.26;51.30
76732;BME280;65656;51.130;13.658;2023-07-30T15:03:31;98690.41;;;22.89;55.08
76732;BME280;65656;51.130;13.658;2023-07-30T15:07:34;98719.47;;;21.97;60.72
76732;BME280;65656;51.130;13.658;2023-07-30T15:11:36;98796.63;;;20.57;71.55
76732;BME280;65656;51.130;13.658;2023-07-30T15:15:37;98846.34;;;17.95;100.00
76732;BME280;65656;51.130;13.658;2023-07-30T15:19:39;98855.03;;;16.97;100.00
76732;BME280;65656;51.130;13.658;2023-07-30T15:23:43;98865.84;;;16.47;100.00
76732;BME280;65656;51.130;13.658;2023-07-30T15:27:44;98858.38;;;16.48;100.00
76732;BME280;65656;51.130;13.658;2023-07-30T15:31:48;98855.91;;;16.46;100.00
76732;BME280;65656;51.130;13.658;2023-07-30T15:35:50;98838.09;;;16.52;100.00
76732;BME280;65656;51.130;13.658;2023-07-30T15:39:53;98810.06;;;16.59;100.00
76732;BME280;65656;51.130;13.658;2023-07-30T15:43:54;98807.00;;;16.60;100.00
76732;BME280;65656;51.130;13.658;2023-07-30T15:47:56;98810.25;;;16.62;100.00
76732;BME280;65656;51.130;13.658;2023-07-30T15:51:57;98814.34;;;16.51;100.00
76732;BME280;65656;51.130;13.658;2023-07-30T15:56:01;98817.66;;;16.67;100.00
76732;BME280;65656;51.130;13.658;2023-07-30T16:00:03;98810.09;;;16.73;100.00
76732;BME280;65656;51.130;13.658;2023-07-30T16:04:04;98812.78;;;16.78;100.00
76732;BME280;65656;51.130;13.658;2023-07-30T16:08:06;98812.34;;;16.70;100.00
76732;BME280;65656;51.130;13.658;2023-07-30T16:12:09;98826.22;;;16.84;100.00
76732;BME280;65656;51.130;13.658;2023-07-30T16:16:12;98824.34;;;16.80;100.00
76732;BME280;65656;51.130;13.658;2023-07-30T16:20:14;98829.59;;;16.81;100.00
76732;BME280;65656;51.130;13.658;2023-07-30T16:24:15;98821.41;;;16.90;100.00
76732;BME280;65656;51.130;13.658;2023-07-30T16:28:18;98821.09;;;16.91;100.00
76732;BME280;65656;51.130;13.658;2023-07-30T16:32:20;98822.66;;;16.97;100.00
76732;BME280;65656;51.130;13.658;2023-07-30T16:36:21;98814.94;;;17.08;100.00
76732;BME280;65656;51.130;13.658;2023-07-30T16:40:23;98817.94;;;16.98;100.00
76732;BME280;65656;51.130;13.658;2023-07-30T16:44:26;98828.19;;;16.97;100.00
76732;BME280;65656;51.130;13.658;2023-07-30T16:48:27;98842.00;;;16.84;100.00
76732;BME280;65656;51.130;13.658;2023-07-30T16:52:29;98841.50;;;16.82;100.00
76732;BME280;65656;51.130;13.658;2023-07-30T16:56:30;98836.22;;;16.80;100.00
76732;BME280;65656;51.130;13.658;2023-07-30T17:00:33;98850.69;;;16.77;100.00
76732;BME280;65656;51.130;13.658;2023-07-30T17:04:35;98851.91;;;16.71;100.00
76732;BME280;65656;51.130;13.658;2023-07-30T17:08:37;98859.28;;;16.76;100.00
76732;BME280;65656;51.130;13.658;2023-07-30T17:12:38;98862.19;;;16.84;100.00
76732;BME280;65656;51.130;13.658;2023-07-30T17:16:41;98884.00;;;16.53;100.00
76732;BME280;65656;51.130;13.658;2023-07-30T17:20:44;98878.78;;;16.33;100.00
76732;BME280;65656;51.130;13.658;2023-07-30T17:24:56;98891.81;;;16.13;100.00
76732;BME280;65656;51.130;13.658;2023-07-30T17:28:57;98904.97;;;16.22;100.00
76732;BME280;65656;51.130;13.658;2023-07-30T17:33:00;98916.47;;;16.29;100.00
76732;BME280;65656;51.130;13.658;2023-07-30T17:37:02;98925.94;;;16.23;100.00
76732;BME280;65656;51.130;13.658;2023-07-30T17:41:04;98939.31;;;16.15;100.00
76732;BME280;65656;51.130;13.658;2023-07-30T17:45:10;98938.03;;;16.08;100.00
76732;BME280;65656;51.130;13.658;2023-07-30T17:49:13;98944.19;;;16.05;100.00
76732;BME280;65656;51.130;13.658;2023-07-30T17:53:14;98943.03;;;15.87;100.00
76732;BME280;65656;51.130;13.658;2023-07-30T17:57:16;98950.16;;;15.69;100.00
76732;BME280;65656;51.130;13.658;2023-07-30T18:01:18;98968.78;;;15.58;100.00
76732;BME280;65656;51.130;13.658;2023-07-30T18:05:21;98969.25;;;15.42;100.00
76732;BME280;65656;51.130;13.658;2023-07-30T18:09:23;98977.53;;;15.13;100.00
76732;BME280;65656;51.130;13.658;2023-07-30T18:13:25;98991.22;;;14.94;100.00
76732;BME280;65656;51.130;13.658;2023-07-30T18:17:27;98991.06;;;14.80;100.00
76732;BME280;65656;51.130;13.658;2023-07-30T18:21:30;98986.19;;;14.67;100.00
76732;BME280;65656;51.130;13.658;2023-07-30T18:25:31;98991.81;;;14.57;100.00
76732;BME280;65656;51.130;13.658;2023-07-30T18:29:33;99007.84;;;14.49;100.00
76732;BME280;65656;51.130;13.658;2023-07-30T18:33:35;99023.00;;;14.47;100.00
76732;BME280;65656;51.130;13.658;2023-07-30T18:37:38;99023.31;;;14.40;100.00
76732;BME280;65656;51.130;13.658;2023-07-30T18:41:39;99021.69;;;14.34;100.00
76732;BME280;65656;51.130;13.658;2023-07-30T18:45:41;99023.91;;;14.32;100.00
76732;BME280;65656;51.130;13.658;2023-07-30T18:49:43;99025.56;;;14.28;100.00
76732;BME280;65656;51.130;13.658;2023-07-30T18:53:46;99023.13;;;14.21;100.00
76732;BME280;65656;51.130;13.658;2023-07-30T18:57:48;99016.25;;;14.19;100.00
76732;BME280;65656;51.130;13.658;2023-07-30T19:01:49;99028.13;;;14.14;100.00
76732;BME280;65656;51.130;13.658;2023-07-30T19:05:54;99027.34;;;14.09;100.00
76732;BME280;65656;51.130;13.658;2023-07-30T19:09:58;99017.16;;;14.04;100.00
76732;BME280;65656;51.130;13.658;2023-07-30T19:14:00;99027.88;;;14.01;100.00
76732;BME280;65656;51.130;13.658;2023-07-30T19:18:01;99036.44;;;13.99;100.00
76732;BME280;65656;51.130;13.658;2023-07-30T19:22:03;99034.81;;;13.98;100.00
76732;BME280;65656;51.130;13.658;2023-07-30T19:26:06;99033.44;;;13.90;100.00
76732;BME280;65656;51.130;13.658;2023-07-30T19:30:08;99044.75;;;13.84;100.00
76732;BME280;65656;51.130;13.658;2023-07-30T19:34:10;99040.13;;;13.79;100.00
76732;BME280;65656;51.130;13.658;2023-07-30T19:38:12;99030.22;;;13.68;100.00
76732;BME280;65656;51.130;13.658;2023-07-30T19:42:15;99034.63;;;13.74;100.00
76732;BME280;65656;51.130;13.658;2023-07-30T19:46:17;99043.44;;;13.71;100.00
76732;BME280;65656;51.130;13.658;2023-07-30T19:50:19;99037.13;;;13.65;100.00
76732;BME280;65656;51.130;13.658;2023-07-30T19:54:27;99026.69;;;13.57;100.00
76732;BME280;65656;51.130;13.658;2023-07-30T19:58:31;99030.25;;;13.58;100.00
76732;BME280;65656;51.130;13.658;2023-07-30T20:02:33;99023.09;;;13.57;100.00
76732;BME280;65656;51.130;13.658;2023-07-30T20:06:35;99030.25;;;13.58;100.00
76732;BME280;65656;51.130;13.658;2023-07-30T20:10:37;99029.16;;;13.54;100.00
76732;BME280;65656;51.130;13.658;2023-07-30T20:14:40;99039.38;;;13.43;100.00
76732;BME280;65656;51.130;13.658;2023-07-30T20:18:42;99030.88;;;13.40;100.00
76732;BME280;65656;51.130;13.658;2023-07-30T20:22:43;99034.72;;;13.33;100.00
76732;BME280;65656;51.130;13.658;2023-07-30T20:26:45;99032.50;;;13.35;100.00
76732;BME280;65656;51.130;13.658;2023-07-30T20:30:48;99030.84;;;13.34;100.00
76732;BME280;65656;51.130;13.658;2023-07-30T20:34:50;99028.13;;;13.24;100.00
76732;BME280;65656;51.130;13.658;2023-07-30T20:38:52;99031.41;;;13.21;100.00
76732;BME280;65656;51.130;13.658;2023-07-30T20:42:54;99033.06;;;13.22;100.00
76732;BME280;65656;51.130;13.658;2023-07-30T20:46:57;99039.66;;;13.16;100.00
76732;BME280;65656;51.130;13.658;2023-07-30T20:50:59;99039.13;;;13.29;100.00
76732;BME280;65656;51.130;13.658;2023-07-30T20:55:01;99032.53;;;13.25;100.00